TRA19Z EHEH-EGLL
Flight info
| Callsign | TRA19Z |
|---|---|
| Flight time | 0h 49m |
| Altitude | 24000 |
| Route | ABNED L980 LOGAN |
| Aircraft | B738/M-SDE2E3FGHIRWXY/LB1 |
Departure
| Time | 2026-05-05 19:24 |
|---|---|
| Airport | Eindhoven Airport (EHEH) |
Arrival
| Time | 2026-05-05 20:13 |
|---|---|
| Airport | London Heathrow Airport (EGLL) |
| Time | Latitude | Longitude | Altitude | Speed | Heading |
|---|---|---|---|---|---|
| 2026-05-05 18:48 | 51.45888 | 5.39089 | 84 ft | 0 kts | 124° |
| 2026-05-05 19:08 | 51.45889 | 5.39088 | 83 ft | 1 kts | 124° |
| 2026-05-05 19:08 | 51.45896 | 5.39070 | 83 ft | 2 kts | 124° |
| 2026-05-05 19:09 | 51.45905 | 5.39050 | 83 ft | 2 kts | 124° |
| 2026-05-05 19:09 | 51.45914 | 5.39030 | 83 ft | 2 kts | 124° |
| 2026-05-05 19:09 | 51.45923 | 5.39011 | 83 ft | 2 kts | 144° |
| 2026-05-05 19:09 | 51.45936 | 5.39002 | 83 ft | 2 kts | 173° |
| 2026-05-05 19:10 | 51.45951 | 5.39004 | 83 ft | 1 kts | 202° |
| 2026-05-05 19:10 | 51.45954 | 5.39007 | 83 ft | 0 kts | 208° |
| 2026-05-05 19:10 | 51.45935 | 5.38990 | 84 ft | 3 kts | 212° |
| 2026-05-05 19:10 | 51.45921 | 5.38974 | 83 ft | 0 kts | 215° |
| 2026-05-05 19:13 | 51.45913 | 5.38966 | 83 ft | 5 kts | 215° |
| 2026-05-05 19:13 | 51.45837 | 5.38879 | 83 ft | 18 kts | 215° |
| 2026-05-05 19:13 | 51.45789 | 5.38783 | 83 ft | 8 kts | 290° |
| 2026-05-05 19:14 | 51.45802 | 5.38746 | 83 ft | 7 kts | 302° |
| 2026-05-05 19:14 | 51.45815 | 5.38715 | 83 ft | 0 kts | 305° |
| 2026-05-05 19:14 | 51.45821 | 5.38702 | 83 ft | 4 kts | 304° |
| 2026-05-05 19:14 | 51.45862 | 5.38608 | 83 ft | 16 kts | 304° |
| 2026-05-05 19:15 | 51.45954 | 5.38407 | 83 ft | 26 kts | 307° |
| 2026-05-05 19:15 | 51.45927 | 5.38196 | 83 ft | 22 kts | 215° |
| 2026-05-05 19:15 | 51.45805 | 5.38055 | 83 ft | 21 kts | 215° |
| 2026-05-05 19:15 | 51.45688 | 5.37925 | 83 ft | 19 kts | 214° |
| 2026-05-05 19:16 | 51.45569 | 5.37791 | 83 ft | 22 kts | 214° |
| 2026-05-05 19:16 | 51.45423 | 5.37634 | 83 ft | 30 kts | 214° |
| 2026-05-05 19:16 | 51.45222 | 5.37396 | 83 ft | 38 kts | 217° |
| 2026-05-05 19:16 | 51.45007 | 5.37166 | 83 ft | 36 kts | 216° |
| 2026-05-05 19:17 | 51.44807 | 5.36941 | 83 ft | 34 kts | 214° |
| 2026-05-05 19:17 | 51.44616 | 5.36726 | 83 ft | 32 kts | 213° |
| 2026-05-05 19:17 | 51.44434 | 5.36524 | 83 ft | 31 kts | 212° |
| 2026-05-05 19:17 | 51.44265 | 5.36330 | 83 ft | 29 kts | 216° |
| 2026-05-05 19:18 | 51.44101 | 5.36151 | 83 ft | 27 kts | 214° |
| 2026-05-05 19:18 | 51.44003 | 5.36069 | 83 ft | 3 kts | 170° |
| 2026-05-05 19:18 | 51.43990 | 5.36078 | 83 ft | 1 kts | 146° |
| 2026-05-05 19:21 | 51.43987 | 5.36081 | 83 ft | 2 kts | 141° |
| 2026-05-05 19:21 | 51.43942 | 5.36173 | 83 ft | 15 kts | 124° |
| 2026-05-05 19:21 | 51.43941 | 5.36257 | 83 ft | 5 kts | 27° |
| 2026-05-05 19:21 | 51.43963 | 5.36277 | 83 ft | 0 kts | 35° |
| 2026-05-05 19:23 | 51.43965 | 5.36279 | 83 ft | 1 kts | 35° |
| 2026-05-05 19:23 | 51.44065 | 5.36390 | 83 ft | 48 kts | 35° |
| 2026-05-05 19:23 | 51.44532 | 5.36912 | 84 ft | 113 kts | 34° |
| 2026-05-05 19:23 | 51.45332 | 5.37808 | 93 ft | 164 kts | 35° |
| 2026-05-05 19:24 | 51.46261 | 5.38800 | 812 ft | 156 kts | 31° |
| 2026-05-05 19:24 | 51.47129 | 5.39698 | 1640 ft | 149 kts | 34° |
| 2026-05-05 19:24 | 51.48038 | 5.40505 | 2133 ft | 159 kts | 13° |
| 2026-05-05 19:24 | 51.49187 | 5.40571 | 2542 ft | 172 kts | 8° |
| 2026-05-05 19:25 | 51.50300 | 5.41287 | 2918 ft | 182 kts | 42° |
| 2026-05-05 19:25 | 51.51030 | 5.42941 | 3335 ft | 195 kts | 57° |
| 2026-05-05 19:25 | 51.51981 | 5.44611 | 3647 ft | 216 kts | 31° |
| 2026-05-05 19:25 | 51.53440 | 5.45222 | 4347 ft | 224 kts | 358° |
| 2026-05-05 19:26 | 51.54911 | 5.44411 | 5073 ft | 233 kts | 325° |
| 2026-05-05 19:26 | 51.55907 | 5.42365 | 5708 ft | 245 kts | 294° |
| 2026-05-05 19:26 | 51.56189 | 5.39599 | 5873 ft | 258 kts | 265° |
| 2026-05-05 19:26 | 51.55662 | 5.36889 | 5869 ft | 255 kts | 242° |
| 2026-05-05 19:27 | 51.54786 | 5.34434 | 5867 ft | 251 kts | 241° |
| 2026-05-05 19:27 | 51.53973 | 5.31956 | 5866 ft | 252 kts | 245° |
| 2026-05-05 19:27 | 51.53225 | 5.29407 | 5856 ft | 255 kts | 246° |
| 2026-05-05 19:27 | 51.52476 | 5.26768 | 6403 ft | 262 kts | 246° |
| 2026-05-05 19:28 | 51.51749 | 5.24205 | 7379 ft | 253 kts | 246° |
| 2026-05-05 19:28 | 51.51024 | 5.21628 | 8036 ft | 256 kts | 248° |
| 2026-05-05 19:28 | 51.50516 | 5.18913 | 8699 ft | 258 kts | 265° |
| 2026-05-05 19:28 | 51.50642 | 5.16018 | 9173 ft | 267 kts | 285° |
| 2026-05-05 19:29 | 51.51205 | 5.13120 | 9587 ft | 280 kts | 290° |
| 2026-05-05 19:29 | 51.51827 | 5.10125 | 10051 ft | 291 kts | 288° |
| 2026-05-05 19:29 | 51.52410 | 5.06989 | 10669 ft | 296 kts | 287° |
| 2026-05-05 19:29 | 51.52967 | 5.03777 | 11331 ft | 300 kts | 285° |
| 2026-05-05 19:30 | 51.53516 | 5.00524 | 12006 ft | 305 kts | 286° |
| 2026-05-05 19:30 | 51.54064 | 4.97230 | 12671 ft | 309 kts | 286° |
| 2026-05-05 19:30 | 51.54619 | 4.93920 | 13397 ft | 311 kts | 286° |
| 2026-05-05 19:30 | 51.55184 | 4.90583 | 14059 ft | 315 kts | 286° |
| 2026-05-05 19:31 | 51.55758 | 4.87186 | 14753 ft | 318 kts | 286° |
| 2026-05-05 19:31 | 51.56335 | 4.83761 | 15408 ft | 323 kts | 286° |
| 2026-05-05 19:31 | 51.56940 | 4.80190 | 15747 ft | 339 kts | 285° |
| 2026-05-05 19:31 | 51.57563 | 4.76470 | 16107 ft | 354 kts | 285° |
| 2026-05-05 19:32 | 51.58210 | 4.72578 | 16446 ft | 368 kts | 285° |
| 2026-05-05 19:32 | 51.58877 | 4.68560 | 16749 ft | 382 kts | 285° |
| 2026-05-05 19:32 | 51.59578 | 4.64324 | 17037 ft | 397 kts | 285° |
| 2026-05-05 19:32 | 51.60287 | 4.60032 | 17683 ft | 400 kts | 285° |
| 2026-05-05 19:33 | 51.60994 | 4.55736 | 18344 ft | 403 kts | 285° |
| 2026-05-05 19:33 | 51.61719 | 4.51319 | 18982 ft | 406 kts | 285° |
| 2026-05-05 19:33 | 51.62093 | 4.49040 | 19325 ft | 407 kts | 285° |
| 2026-05-05 19:33 | 51.62818 | 4.44632 | 19883 ft | 412 kts | 285° |
| 2026-05-05 19:34 | 51.63548 | 4.40187 | 20515 ft | 414 kts | 284° |
| 2026-05-05 19:34 | 51.64283 | 4.35698 | 21100 ft | 417 kts | 284° |
| 2026-05-05 19:34 | 51.65024 | 4.31168 | 21678 ft | 420 kts | 283° |
| 2026-05-05 19:35 | 51.66511 | 4.22019 | 22763 ft | 426 kts | 283° |
| 2026-05-05 19:35 | 51.67253 | 4.17407 | 23298 ft | 429 kts | 282° |
| 2026-05-05 19:35 | 51.67995 | 4.12783 | 23792 ft | 432 kts | 282° |
| 2026-05-05 19:35 | 51.68751 | 4.08070 | 23883 ft | 434 kts | 282° |
| 2026-05-05 19:36 | 51.69497 | 4.03429 | 23889 ft | 430 kts | 282° |
| 2026-05-05 19:36 | 51.70237 | 3.98821 | 23894 ft | 426 kts | 282° |
| 2026-05-05 19:36 | 51.70976 | 3.94190 | 23897 ft | 425 kts | 282° |
| 2026-05-05 19:36 | 51.71708 | 3.89583 | 23896 ft | 426 kts | 282° |
| 2026-05-05 19:37 | 51.72445 | 3.84929 | 23902 ft | 426 kts | 283° |
| 2026-05-05 19:37 | 51.73209 | 3.80390 | 23900 ft | 427 kts | 284° |
| 2026-05-05 19:37 | 51.74065 | 3.75758 | 23903 ft | 428 kts | 285° |
| 2026-05-05 19:37 | 51.74941 | 3.71224 | 23903 ft | 427 kts | 286° |
| 2026-05-05 19:38 | 51.75831 | 3.66607 | 23903 ft | 427 kts | 286° |
| 2026-05-05 19:38 | 51.76689 | 3.62095 | 23906 ft | 426 kts | 285° |
| 2026-05-05 19:38 | 51.77547 | 3.57532 | 23902 ft | 426 kts | 285° |
| 2026-05-05 19:38 | 51.78404 | 3.52937 | 23912 ft | 427 kts | 285° |
| 2026-05-05 19:39 | 51.79250 | 3.48368 | 23907 ft | 427 kts | 285° |
| 2026-05-05 19:39 | 51.80093 | 3.43802 | 23905 ft | 428 kts | 285° |
| 2026-05-05 19:39 | 51.80937 | 3.39209 | 23913 ft | 428 kts | 285° |
| 2026-05-05 19:39 | 51.81782 | 3.34598 | 23913 ft | 427 kts | 285° |
| 2026-05-05 19:40 | 51.82623 | 3.29993 | 23914 ft | 427 kts | 285° |
| 2026-05-05 19:40 | 51.83450 | 3.25416 | 23917 ft | 427 kts | 284° |
| 2026-05-05 19:40 | 51.84147 | 3.20775 | 23921 ft | 426 kts | 279° |
| 2026-05-05 19:40 | 51.84538 | 3.16049 | 23934 ft | 425 kts | 272° |
| 2026-05-05 19:41 | 51.84545 | 3.11261 | 23931 ft | 423 kts | 266° |
| 2026-05-05 19:41 | 51.84325 | 3.06555 | 23940 ft | 423 kts | 263° |
| 2026-05-05 19:41 | 51.84018 | 3.01857 | 23932 ft | 421 kts | 262° |
| 2026-05-05 19:41 | 51.83683 | 2.97127 | 23938 ft | 422 kts | 262° |
| 2026-05-05 19:42 | 51.83356 | 2.92446 | 23937 ft | 424 kts | 263° |
| 2026-05-05 19:42 | 51.83026 | 2.87691 | 23938 ft | 425 kts | 263° |
| 2026-05-05 19:42 | 51.82704 | 2.82984 | 23941 ft | 425 kts | 263° |
| 2026-05-05 19:42 | 51.82381 | 2.78263 | 23938 ft | 424 kts | 263° |
| 2026-05-05 19:43 | 51.82057 | 2.73548 | 23938 ft | 424 kts | 263° |
| 2026-05-05 19:43 | 51.81736 | 2.68868 | 23941 ft | 422 kts | 263° |
| 2026-05-05 19:43 | 51.81413 | 2.64158 | 23937 ft | 421 kts | 263° |
| 2026-05-05 19:43 | 51.81092 | 2.59463 | 23936 ft | 421 kts | 263° |
| 2026-05-05 19:44 | 51.80772 | 2.54818 | 23945 ft | 420 kts | 263° |
| 2026-05-05 19:44 | 51.80447 | 2.50161 | 23941 ft | 418 kts | 263° |
| 2026-05-05 19:44 | 51.80119 | 2.45482 | 23931 ft | 417 kts | 263° |
| 2026-05-05 19:44 | 51.79794 | 2.40867 | 23935 ft | 420 kts | 264° |
| 2026-05-05 19:45 | 51.79462 | 2.36169 | 23937 ft | 423 kts | 263° |
| 2026-05-05 19:45 | 51.79127 | 2.31454 | 23934 ft | 425 kts | 263° |
| 2026-05-05 19:45 | 51.78785 | 2.26674 | 23933 ft | 425 kts | 263° |
| 2026-05-05 19:45 | 51.78448 | 2.21979 | 23928 ft | 424 kts | 263° |
| 2026-05-05 19:46 | 51.78134 | 2.17266 | 23930 ft | 425 kts | 264° |
| 2026-05-05 19:46 | 51.77848 | 2.12497 | 23939 ft | 425 kts | 264° |
| 2026-05-05 19:46 | 51.77581 | 2.07802 | 23939 ft | 423 kts | 265° |
| 2026-05-05 19:46 | 51.77312 | 2.03047 | 23941 ft | 422 kts | 265° |
| 2026-05-05 19:47 | 51.77041 | 1.98354 | 23931 ft | 422 kts | 265° |
| 2026-05-05 19:47 | 51.76769 | 1.93690 | 23935 ft | 422 kts | 265° |
| 2026-05-05 19:47 | 51.76492 | 1.89013 | 23935 ft | 421 kts | 265° |
| 2026-05-05 19:47 | 51.76207 | 1.84286 | 23942 ft | 423 kts | 264° |
| 2026-05-05 19:48 | 51.75920 | 1.79581 | 23939 ft | 424 kts | 264° |
| 2026-05-05 19:48 | 51.75630 | 1.74860 | 23937 ft | 424 kts | 264° |
| 2026-05-05 19:48 | 51.75340 | 1.70146 | 23939 ft | 425 kts | 264° |
| 2026-05-05 19:48 | 51.75047 | 1.65441 | 23939 ft | 424 kts | 264° |
| 2026-05-05 19:49 | 51.74752 | 1.60734 | 23932 ft | 411 kts | 265° |
| 2026-05-05 19:49 | 51.74563 | 1.57758 | 23907 ft | 402 kts | 265° |
| 2026-05-05 19:49 | 51.74188 | 1.51896 | 23570 ft | 389 kts | 265° |
| 2026-05-05 19:49 | 51.73910 | 1.47588 | 23147 ft | 384 kts | 265° |
| 2026-05-05 19:50 | 51.73636 | 1.43367 | 22617 ft | 382 kts | 265° |
| 2026-05-05 19:50 | 51.73358 | 1.39088 | 22045 ft | 382 kts | 265° |
| 2026-05-05 19:50 | 51.73084 | 1.34879 | 21473 ft | 381 kts | 264° |
| 2026-05-05 19:50 | 51.72805 | 1.30626 | 20894 ft | 380 kts | 264° |
| 2026-05-05 19:51 | 51.72527 | 1.26417 | 20310 ft | 380 kts | 264° |
| 2026-05-05 19:51 | 51.72250 | 1.22249 | 19737 ft | 379 kts | 264° |
| 2026-05-05 19:51 | 51.71969 | 1.18031 | 19145 ft | 378 kts | 264° |
| 2026-05-05 19:51 | 51.71688 | 1.13841 | 18567 ft | 376 kts | 264° |
| 2026-05-05 19:52 | 51.71411 | 1.09687 | 17983 ft | 375 kts | 264° |
| 2026-05-05 19:52 | 51.71133 | 1.05530 | 17405 ft | 373 kts | 264° |
| 2026-05-05 19:52 | 51.70857 | 1.01367 | 16812 ft | 372 kts | 264° |
| 2026-05-05 19:52 | 51.70581 | 0.97260 | 16233 ft | 370 kts | 264° |
| 2026-05-05 19:53 | 51.70305 | 0.93204 | 15902 ft | 361 kts | 264° |
| 2026-05-05 19:53 | 51.70028 | 0.89201 | 15297 ft | 361 kts | 264° |
| 2026-05-05 19:53 | 51.69749 | 0.85192 | 14622 ft | 362 kts | 264° |
| 2026-05-05 19:53 | 51.69471 | 0.81210 | 14046 ft | 360 kts | 264° |
| 2026-05-05 19:54 | 51.69191 | 0.77231 | 13463 ft | 359 kts | 265° |
| 2026-05-05 19:54 | 51.68907 | 0.73242 | 12881 ft | 357 kts | 264° |
| 2026-05-05 19:54 | 51.68624 | 0.69285 | 12322 ft | 356 kts | 265° |
| 2026-05-05 19:54 | 51.68348 | 0.65393 | 11770 ft | 354 kts | 265° |
| 2026-05-05 19:55 | 51.68068 | 0.61478 | 11183 ft | 352 kts | 265° |
| 2026-05-05 19:55 | 51.67787 | 0.57559 | 10688 ft | 349 kts | 265° |
| 2026-05-05 19:55 | 51.67513 | 0.53781 | 10412 ft | 339 kts | 265° |
| 2026-05-05 19:55 | 51.67240 | 0.50067 | 10287 ft | 325 kts | 265° |
| 2026-05-05 19:56 | 51.66981 | 0.46540 | 9964 ft | 319 kts | 265° |
| 2026-05-05 19:56 | 51.66720 | 0.42994 | 9555 ft | 315 kts | 265° |
| 2026-05-05 19:56 | 51.66454 | 0.39516 | 9184 ft | 311 kts | 265° |
| 2026-05-05 19:56 | 51.66191 | 0.36153 | 8988 ft | 301 kts | 265° |
| 2026-05-05 19:57 | 51.65936 | 0.32866 | 8947 ft | 287 kts | 264° |
| 2026-05-05 19:57 | 51.65781 | 0.30799 | 8944 ft | 281 kts | 265° |
| 2026-05-05 19:57 | 51.65468 | 0.26603 | 8948 ft | 284 kts | 265° |
| 2026-05-05 19:57 | 51.65230 | 0.23438 | 8962 ft | 287 kts | 265° |
| 2026-05-05 19:58 | 51.64992 | 0.20294 | 8931 ft | 285 kts | 265° |
| 2026-05-05 19:58 | 51.64749 | 0.17104 | 8940 ft | 285 kts | 265° |
| 2026-05-05 19:58 | 51.64520 | 0.13927 | 8943 ft | 286 kts | 265° |
| 2026-05-05 19:58 | 51.64321 | 0.10772 | 8939 ft | 286 kts | 266° |
| 2026-05-05 19:59 | 51.64125 | 0.07582 | 8924 ft | 286 kts | 266° |
| 2026-05-05 19:59 | 51.63927 | 0.04359 | 8634 ft | 290 kts | 266° |
| 2026-05-05 19:59 | 51.63729 | 0.01181 | 8256 ft | 288 kts | 266° |
| 2026-05-05 19:59 | 51.63529 | -0.01995 | 7981 ft | 283 kts | 266° |
| 2026-05-05 20:00 | 51.63329 | -0.05121 | 7955 ft | 274 kts | 266° |
| 2026-05-05 20:00 | 51.63134 | -0.08191 | 7961 ft | 279 kts | 266° |
| 2026-05-05 20:00 | 51.62938 | -0.11286 | 7951 ft | 281 kts | 266° |
| 2026-05-05 20:00 | 51.62738 | -0.14400 | 7955 ft | 280 kts | 266° |
| 2026-05-05 20:01 | 51.62538 | -0.17538 | 7948 ft | 280 kts | 266° |
| 2026-05-05 20:01 | 51.62342 | -0.20571 | 7941 ft | 268 kts | 266° |
| 2026-05-05 20:01 | 51.62151 | -0.23488 | 7944 ft | 253 kts | 266° |
| 2026-05-05 20:01 | 51.61966 | -0.26250 | 7953 ft | 246 kts | 266° |
| 2026-05-05 20:02 | 51.61784 | -0.28958 | 7953 ft | 247 kts | 266° |
| 2026-05-05 20:02 | 51.61597 | -0.31730 | 7949 ft | 249 kts | 266° |
| 2026-05-05 20:02 | 51.61410 | -0.34475 | 7951 ft | 249 kts | 266° |
| 2026-05-05 20:02 | 51.61222 | -0.37237 | 7949 ft | 249 kts | 266° |
| 2026-05-05 20:03 | 51.61033 | -0.40011 | 7949 ft | 249 kts | 266° |
| 2026-05-05 20:03 | 51.60848 | -0.42755 | 7953 ft | 249 kts | 266° |
| 2026-05-05 20:03 | 51.60675 | -0.45520 | 7952 ft | 249 kts | 270° |
| 2026-05-05 20:03 | 51.60698 | -0.48296 | 7957 ft | 248 kts | 275° |
| 2026-05-05 20:04 | 51.60727 | -0.51055 | 7952 ft | 248 kts | 271° |
| 2026-05-05 20:04 | 51.60639 | -0.53824 | 7952 ft | 249 kts | 268° |
| 2026-05-05 20:04 | 51.60486 | -0.56597 | 7957 ft | 249 kts | 267° |
| 2026-05-05 20:04 | 51.60316 | -0.59363 | 7960 ft | 249 kts | 267° |
| 2026-05-05 20:05 | 51.60145 | -0.62142 | 7966 ft | 249 kts | 267° |
| 2026-05-05 20:05 | 51.59975 | -0.64917 | 7931 ft | 250 kts | 267° |
| 2026-05-05 20:05 | 51.59805 | -0.67713 | 7604 ft | 255 kts | 266° |
| 2026-05-05 20:05 | 51.59630 | -0.70560 | 7232 ft | 256 kts | 266° |
| 2026-05-05 20:06 | 51.59455 | -0.73399 | 6859 ft | 258 kts | 266° |
| 2026-05-05 20:06 | 51.59275 | -0.76277 | 6482 ft | 259 kts | 264° |
| 2026-05-05 20:06 | 51.58723 | -0.79011 | 6073 ft | 262 kts | 238° |
| 2026-05-05 20:06 | 51.57450 | -0.81012 | 5708 ft | 259 kts | 208° |
| 2026-05-05 20:07 | 51.55744 | -0.81798 | 5337 ft | 255 kts | 179° |
| 2026-05-05 20:07 | 51.54044 | -0.81345 | 4970 ft | 249 kts | 155° |
| 2026-05-05 20:07 | 51.52484 | -0.80210 | 4605 ft | 245 kts | 153° |
| 2026-05-05 20:07 | 51.50863 | -0.79357 | 4215 ft | 246 kts | 169° |
| 2026-05-05 20:08 | 51.49172 | -0.79054 | 3828 ft | 244 kts | 166° |
| 2026-05-05 20:08 | 51.47654 | -0.77984 | 3369 ft | 238 kts | 135° |
| 2026-05-05 20:08 | 51.46742 | -0.75906 | 3021 ft | 221 kts | 103° |
| 2026-05-05 20:08 | 51.46554 | -0.73622 | 2997 ft | 199 kts | 84° |
| 2026-05-05 20:09 | 51.46800 | -0.71562 | 2993 ft | 180 kts | 63° |
| 2026-05-05 20:09 | 51.47308 | -0.69732 | 2740 ft | 185 kts | 73° |
| 2026-05-05 20:09 | 51.47448 | -0.67710 | 2507 ft | 183 kts | 83° |
| 2026-05-05 20:09 | 51.47532 | -0.65670 | 2216 ft | 181 kts | 82° |
| 2026-05-05 20:10 | 51.47589 | -0.63698 | 1988 ft | 172 kts | 84° |
| 2026-05-05 20:10 | 51.47610 | -0.61845 | 1721 ft | 161 kts | 83° |
| 2026-05-05 20:10 | 51.47636 | -0.60110 | 1543 ft | 148 kts | 84° |
| 2026-05-05 20:10 | 51.47651 | -0.58527 | 1354 ft | 146 kts | 84° |
| 2026-05-05 20:11 | 51.47667 | -0.56888 | 1141 ft | 146 kts | 85° |
| 2026-05-05 20:11 | 51.47681 | -0.55292 | 931 ft | 144 kts | 85° |
| 2026-05-05 20:11 | 51.47709 | -0.53656 | 762 ft | 147 kts | 84° |
| 2026-05-05 20:11 | 51.47731 | -0.52798 | 666 ft | 147 kts | 85° |
| 2026-05-05 20:12 | 51.47738 | -0.51646 | 496 ft | 152 kts | 86° |
| 2026-05-05 20:12 | 51.47741 | -0.49971 | 324 ft | 151 kts | 86° |
| 2026-05-05 20:12 | 51.47749 | -0.48314 | 103 ft | 147 kts | 86° |
| 2026-05-05 20:13 | 51.47758 | -0.46879 | 86 ft | 105 kts | 88° |
| 2026-05-05 20:13 | 51.47756 | -0.45978 | 82 ft | 62 kts | 92° |
| 2026-05-05 20:13 | 51.47750 | -0.45509 | 85 ft | 18 kts | 115° |
| 2026-05-05 20:13 | 51.47644 | -0.45471 | 86 ft | 11 kts | 178° |
| 2026-05-05 20:14 | 51.47632 | -0.45471 | 86 ft | 0 kts | 179° |
| 2026-05-05 20:14 | 51.47631 | -0.45471 | 86 ft | 0 kts | 179° |
| 2026-05-05 20:14 | 51.47626 | -0.45471 | 86 ft | 0 kts | 179° |
| 2026-05-05 20:14 | 51.47615 | -0.45471 | 86 ft | 3 kts | 187° |
| 2026-05-05 20:15 | 51.47594 | -0.45538 | 86 ft | 11 kts | 261° |
| 2026-05-05 20:15 | 51.47595 | -0.45713 | 85 ft | 20 kts | 270° |
| 2026-05-05 20:15 | 51.47596 | -0.46001 | 83 ft | 28 kts | 269° |
| 2026-05-05 20:15 | 51.47593 | -0.46313 | 81 ft | 27 kts | 269° |
| 2026-05-05 20:16 | 51.47592 | -0.46607 | 83 ft | 25 kts | 268° |
| 2026-05-05 20:16 | 51.47582 | -0.46885 | 83 ft | 24 kts | 264° |
| 2026-05-05 20:16 | 51.47578 | -0.47154 | 84 ft | 22 kts | 272° |
| 2026-05-05 20:16 | 51.47581 | -0.47398 | 85 ft | 21 kts | 270° |
| 2026-05-05 20:17 | 51.47580 | -0.47634 | 83 ft | 21 kts | 268° |
| 2026-05-05 20:17 | 51.47580 | -0.47867 | 82 ft | 20 kts | 270° |
| 2026-05-05 20:17 | 51.47582 | -0.48101 | 81 ft | 20 kts | 272° |
| 2026-05-05 20:17 | 51.47560 | -0.48315 | 79 ft | 19 kts | 230° |
| 2026-05-05 20:18 | 51.47462 | -0.48451 | 79 ft | 17 kts | 210° |
| 2026-05-05 20:18 | 51.47343 | -0.48481 | 78 ft | 17 kts | 178° |
| 2026-05-05 20:18 | 51.47229 | -0.48474 | 78 ft | 16 kts | 179° |
| 2026-05-05 20:18 | 51.47155 | -0.48477 | 78 ft | 0 kts | 180° |
| 2026-05-05 20:19 | 51.47147 | -0.48477 | 78 ft | 1 kts | 179° |
| 2026-05-05 20:19 | 51.47140 | -0.48477 | 78 ft | 0 kts | 179° |
| 2026-05-05 20:19 | 51.47134 | -0.48478 | 78 ft | 3 kts | 187° |
| 2026-05-05 20:19 | 51.47124 | -0.48511 | 78 ft | 4 kts | 275° |
| 2026-05-05 20:20 | 51.47126 | -0.48575 | 78 ft | 4 kts | 270° |
| 2026-05-05 20:20 | 51.47126 | -0.48600 | 78 ft | 2 kts | 268° |
| 2026-05-05 20:20 | 51.47126 | -0.48612 | 78 ft | 0 kts | 269° |